Time;durP1;ratioP1;P1;durP2;ratioP2;P2;SDS_P1;SDS_P2;PMS_P1;PMS_P2;Temp;Humidity;BMP_temperature;BMP_pressure;BME280_temperature;BME280_humidity;BME280_pressure;Samples;Min_cycle;Max_cycle;Signal;HPM_P1;HPM_P2
2024/03/16 00:00:46;;;;;;;1.57;1.47;;;11.00;99.90;10.90;100056.00;;;;4877268;28;110156;-63
2024/03/16 00:03:12;;;;;;;2.13;1.73;;;11.00;99.90;10.90;100056.00;;;;4881607;28;88166;-63
2024/03/16 00:05:38;;;;;;;1.27;1.00;;;11.00;99.90;10.90;100055.00;;;;4879655;28;116407;-62
2024/03/16 00:08:05;;;;;;;2.40;1.83;;;11.00;99.90;10.90;100061.00;;;;4883038;28;100391;-63
2024/03/16 00:10:31;;;;;;;2.33;1.63;;;11.00;99.90;10.90;100056.00;;;;4877082;28;95522;-62
2024/03/16 00:12:57;;;;;;;2.10;1.37;;;10.90;99.90;10.90;100054.00;;;;4882714;28;97653;-62
2024/03/16 00:15:23;;;;;;;2.17;1.40;;;10.90;99.90;10.80;100051.00;;;;4879131;28;105198;-62
2024/03/16 00:17:49;;;;;;;1.43;1.33;;;11.00;99.90;10.80;100051.00;;;;4877567;28;117115;-63
2024/03/16 00:20:17;;;;;;;1.50;1.20;;;10.90;99.90;10.80;100053.00;;;;4881505;28;87749;-62
2024/03/16 00:22:43;;;;;;;1.37;1.10;;;10.90;99.90;10.80;100062.00;;;;4878787;28;88241;-62
2024/03/16 00:25:09;;;;;;;1.27;1.13;;;10.80;99.90;10.80;100058.00;;;;4881837;28;117615;-62
2024/03/16 00:27:35;;;;;;;8.27;1.57;;;10.80;99.90;10.80;100054.00;;;;4883834;28;88904;-63
2024/03/16 00:30:01;;;;;;;1.70;1.60;;;10.80;99.90;10.70;100060.00;;;;4881174;28;110565;-62
2024/03/16 00:32:27;;;;;;;2.70;1.67;;;10.80;99.90;10.70;100053.00;;;;4882931;28;101576;-62
2024/03/16 00:34:55;;;;;;;3.60;1.57;;;10.80;99.90;10.70;100061.00;;;;4875730;28;118839;-62
2024/03/16 00:37:20;;;;;;;1.70;1.53;;;10.80;99.90;10.70;100053.00;;;;4878529;28;88798;-63
2024/03/16 00:39:46;;;;;;;1.57;1.43;;;10.80;99.90;10.70;100063.00;;;;4878995;28;98038;-62
2024/03/16 00:42:12;;;;;;;1.23;0.97;;;10.70;99.90;10.70;100053.00;;;;4879233;28;109270;-62
2024/03/16 00:44:37;;;;;;;1.43;1.30;;;10.80;99.90;10.70;100057.00;;;;4877917;28;118711;-62
2024/03/16 00:47:03;;;;;;;2.07;1.87;;;10.70;99.90;10.70;100056.00;;;;4883046;28;88096;-62
2024/03/16 00:49:29;;;;;;;1.47;1.17;;;10.80;99.90;10.80;100051.00;;;;4874603;28;88646;-64
2024/03/16 00:51:55;;;;;;;1.73;1.20;;;10.80;99.90;10.80;100050.00;;;;4879754;28;97327;-62
2024/03/16 00:54:20;;;;;;;1.87;1.70;;;10.80;99.90;10.80;100051.00;;;;4880672;28;118932;-64
2024/03/16 00:56:46;;;;;;;1.73;1.20;;;10.90;99.90;10.90;100043.00;;;;4877174;28;110593;-64
2024/03/16 00:59:13;;;;;;;1.73;1.37;;;10.90;99.90;10.90;100036.00;;;;4876598;28;88863;-64
2024/03/16 01:01:38;;;;;;;2.27;1.17;;;10.90;99.90;10.90;100048.00;;;;4878003;28;87705;-64
2024/03/16 01:04:04;;;;;;;1.57;1.40;;;10.90;99.90;10.90;100044.00;;;;4881414;28;117296;-64
2024/03/16 01:06:30;;;;;;;2.63;1.40;;;11.00;99.90;10.90;100045.00;;;;4882878;28;88207;-64
2024/03/16 01:08:56;;;;;;;4.47;1.57;;;11.00;99.90;10.90;100047.00;;;;4880552;28;87655;-64
2024/03/16 01:11:25;;;;;;;1.30;1.20;;;11.00;99.90;10.90;100052.00;;;;4879270;28;107164;-64
2024/03/16 01:13:51;;;;;;;3.77;1.27;;;11.00;99.90;10.90;100037.00;;;;4891984;28;89858;-64
2024/03/16 01:16:16;;;;;;;3.30;1.37;;;11.00;99.90;10.90;100042.00;;;;4877759;28;118759;-63
2024/03/16 01:18:43;;;;;;;3.27;1.60;;;11.00;99.90;10.90;100049.00;;;;4879614;28;110745;-64
2024/03/16 01:21:10;;;;;;;1.73;1.50;;;11.00;99.90;10.90;100039.00;;;;4880481;28;88021;-64
2024/03/16 01:23:35;;;;;;;1.47;1.20;;;10.90;99.90;10.80;100042.00;;;;4878159;28;89648;-63
2024/03/16 01:26:01;;;;;;;0.93;0.93;;;10.90;99.90;10.80;100044.00;;;;4880111;28;96216;-64
2024/03/16 01:28:27;;;;;;;1.60;1.50;;;10.90;99.90;10.80;100045.00;;;;4880504;28;110836;-62
2024/03/16 01:30:52;;;;;;;1.17;1.07;;;10.80;99.90;10.80;100052.00;;;;4882668;28;87105;-62
2024/03/16 01:33:19;;;;;;;4.63;2.10;;;10.90;99.90;10.80;100038.00;;;;4880696;28;88859;-62
2024/03/16 01:35:48;;;;;;;2.10;1.70;;;10.90;99.90;10.80;100044.00;;;;4879179;28;118247;-63
2024/03/16 01:38:17;;;;;;;1.80;1.57;;;10.80;99.90;10.80;100046.00;;;;4881435;28;88880;-62
2024/03/16 01:40:43;;;;;;;1.53;1.40;;;10.80;99.90;10.80;100046.00;;;;4881199;28;87987;-62
2024/03/16 01:43:15;;;;;;;3.23;1.87;;;10.80;99.90;10.70;100051.00;;;;4874886;28;118711;-63
2024/03/16 01:45:42;;;;;;;1.80;1.63;;;10.80;99.90;10.80;100043.00;;;;4879937;28;88213;-62
2024/03/16 01:48:09;;;;;;;3.03;2.13;;;10.80;99.90;10.70;100037.00;;;;4877071;28;87697;-62
2024/03/16 01:50:39;;;;;;;1.33;1.20;;;10.80;99.90;10.70;100034.00;;;;4875808;28;87804;-63
2024/03/16 01:53:07;;;;;;;1.57;1.47;;;10.70;99.90;10.80;100035.00;;;;4877543;28;101385;-63
2024/03/16 01:55:33;;;;;;;1.70;1.30;;;10.80;99.90;10.70;100033.00;;;;4877535;28;88797;-63
2024/03/16 01:57:59;;;;;;;1.33;1.07;;;10.80;99.90;10.70;100041.00;;;;4875417;28;110962;-62
2024/03/16 02:00:26;;;;;;;1.83;1.37;;;10.80;99.90;10.80;100044.00;;;;4880319;28;87982;-62
2024/03/16 02:02:55;;;;;;;2.07;1.80;;;10.80;99.90;10.80;100043.00;;;;4876115;28;88945;-62
2024/03/16 02:05:21;;;;;;;1.40;1.30;;;10.80;99.90;10.80;100037.00;;;;4882640;28;88724;-63
2024/03/16 02:07:48;;;;;;;2.20;1.60;;;10.90;99.90;10.80;100030.00;;;;4880002;28;90830;-62
2024/03/16 02:10:15;;;;;;;3.53;1.37;;;10.90;99.90;10.80;100031.00;;;;4884678;28;87657;-63
2024/03/16 02:12:41;;;;;;;3.50;1.63;;;10.90;99.90;10.80;100040.00;;;;4880912;28;89324;-63
2024/03/16 02:15:08;;;;;;;2.77;1.93;;;11.20;99.90;10.80;100040.00;;;;4880418;28;88547;-62
2024/03/16 02:17:34;;;;;;;2.40;1.77;;;10.90;99.90;10.80;100039.00;;;;4877906;28;88078;-63
2024/03/16 02:20:02;;;;;;;1.93;1.40;;;10.80;99.90;10.70;100038.00;;;;4874009;28;102752;-62
2024/03/16 02:22:29;;;;;;;2.30;1.40;;;10.80;99.90;10.70;100033.00;;;;4883003;28;87984;-63
2024/03/16 02:24:55;;;;;;;5.23;1.70;;;10.80;99.90;10.70;100037.00;;;;4877628;28;88314;-63
2024/03/16 02:27:21;;;;;;;1.23;1.10;;;10.70;99.90;10.70;100032.00;;;;4877201;28;88669;-64
2024/03/16 02:29:47;;;;;;;1.57;1.13;;;10.70;99.90;10.60;100036.00;;;;4877439;28;88350;-63
2024/03/16 02:32:14;;;;;;;1.13;1.03;;;10.70;99.90;10.60;100028.00;;;;4877696;28;114222;-62
2024/03/16 02:34:40;;;;;;;1.40;1.30;;;10.70;99.90;10.50;100024.00;;;;4880311;28;88242;-63
2024/03/16 02:37:08;;;;;;;1.33;1.23;;;10.70;99.90;10.50;100030.00;;;;4877201;28;88174;-63
2024/03/16 02:39:36;;;;;;;1.73;1.30;;;10.60;99.90;10.50;100032.00;;;;4879002;28;88164;-63
2024/03/16 02:42:04;;;;;;;1.87;1.77;;;10.80;99.90;10.40;100032.00;;;;4877858;28;117603;-63
2024/03/16 02:44:30;;;;;;;1.40;1.30;;;10.50;99.90;10.40;100033.00;;;;4877325;28;103892;-62
2024/03/16 02:46:57;;;;;;;1.00;1.00;;;10.50;99.90;10.40;100027.00;;;;4879099;28;87950;-63
2024/03/16 02:49:23;;;;;;;1.90;1.30;;;10.50;99.90;10.30;100037.00;;;;4877757;28;101147;-62
2024/03/16 02:51:49;;;;;;;2.23;1.53;;;10.40;99.90;10.30;100026.00;;;;4879615;28;90039;-63
2024/03/16 02:54:15;;;;;;;3.93;1.37;;;10.40;99.90;10.30;100035.00;;;;4875265;28;107724;-63
2024/03/16 02:56:44;;;;;;;2.50;1.80;;;10.40;99.90;10.20;100033.00;;;;4874358;28;88051;-63
2024/03/16 02:59:11;;;;;;;2.00;1.30;;;10.40;99.90;10.20;100032.00;;;;4878928;28;87603;-63
2024/03/16 03:01:37;;;;;;;3.07;1.50;;;10.40;99.90;10.20;100042.00;;;;4879859;28;87843;-62
2024/03/16 03:04:05;;;;;;;1.03;0.93;;;10.30;99.90;10.20;100051.00;;;;4880395;28;117497;-62
2024/03/16 03:06:32;;;;;;;2.60;1.53;;;10.30;99.90;10.20;100055.00;;;;4875782;28;87998;-63
2024/03/16 03:08:58;;;;;;;3.07;1.53;;;10.30;99.90;10.20;100056.00;;;;4880181;28;87231;-63
2024/03/16 03:11:26;;;;;;;1.70;1.27;;;10.30;99.90;10.20;100046.00;;;;4877963;28;87808;-63
2024/03/16 03:13:52;;;;;;;1.50;1.30;;;10.60;99.90;10.20;100049.00;;;;4877945;28;95323;-64
2024/03/16 03:16:21;;;;;;;2.90;1.00;;;10.30;99.90;10.20;100064.00;;;;4873773;28;102197;-63
2024/03/16 03:18:51;;;;;;;1.33;1.23;;;10.30;99.90;10.20;100064.00;;;;4876760;28;88218;-62
2024/03/16 03:21:17;;;;;;;1.33;1.07;;;10.30;99.90;10.20;100054.00;;;;4879068;28;88819;-62
2024/03/16 03:23:43;;;;;;;4.93;1.63;;;10.20;99.90;10.20;100053.00;;;;4875234;28;118605;-63
2024/03/16 03:26:11;;;;;;;2.27;1.40;;;10.30;99.90;10.20;100068.00;;;;4874693;28;87888;-62
2024/03/16 03:28:37;;;;;;;2.13;1.10;;;10.30;99.90;10.20;100062.00;;;;4877674;28;87959;-62
2024/03/16 03:31:06;;;;;;;1.83;1.43;;;10.40;99.90;10.20;100064.00;;;;4875743;28;89078;-62
2024/03/16 03:33:32;;;;;;;2.73;1.67;;;10.40;99.90;10.20;100068.00;;;;4882395;28;87054;-63
2024/03/16 03:35:59;;;;;;;1.43;1.13;;;10.30;99.90;10.30;100064.00;;;;4877207;28;88248;-62
2024/03/16 03:38:25;;;;;;;2.17;1.33;;;10.40;99.90;10.30;100073.00;;;;4879459;28;88123;-63
2024/03/16 03:40:50;;;;;;;1.40;1.30;;;10.40;99.90;10.30;100063.00;;;;4873427;28;118634;-62
2024/03/16 03:43:19;;;;;;;2.13;1.70;;;10.40;99.90;10.40;100080.00;;;;4877449;28;88459;-62
2024/03/16 03:50:53;;;;;;;4.70;1.47;;;10.50;99.90;10.40;100084.00;;;;4876905;28;88151;-63
2024/03/16 03:53:20;;;;;;;1.63;1.20;;;10.60;99.90;10.50;100070.00;;;;4876515;28;103359;-63
2024/03/16 03:55:46;;;;;;;1.50;1.33;;;10.50;99.90;10.50;100074.00;;;;4874504;28;101943;-62
2024/03/16 03:58:12;;;;;;;2.33;1.53;;;10.50;99.90;10.40;100079.00;;;;4877778;28;108591;-63
2024/03/16 04:00:38;;;;;;;3.17;1.47;;;10.60;99.90;10.40;100079.00;;;;4879860;28;117700;-63
2024/03/16 04:03:06;;;;;;;1.40;1.30;;;10.50;99.90;10.40;100074.00;;;;4872757;28;115108;-62
2024/03/16 04:05:33;;;;;;;1.83;1.13;;;10.50;99.90;10.40;100077.00;;;;4878145;28;88851;-62
2024/03/16 04:07:59;;;;;;;4.20;1.57;;;10.50;99.90;10.40;100083.00;;;;4882389;28;87920;-62
2024/03/16 04:10:25;;;;;;;1.67;1.50;;;10.40;99.90;10.50;100081.00;;;;4881302;28;112131;-62
2024/03/16 04:12:51;;;;;;;5.97;1.67;;;10.50;99.90;10.50;100090.00;;;;4879716;28;88608;-62
2024/03/16 04:15:16;;;;;;;1.73;1.13;;;10.50;99.90;10.60;100090.00;;;;4882783;28;110828;-62
2024/03/16 04:17:42;;;;;;;2.83;1.47;;;10.60;99.90;10.60;100084.00;;;;4878985;28;87705;-62
2024/03/16 04:20:12;;;;;;;0.87;0.77;;;10.70;99.90;10.70;100092.00;;;;4882597;28;109094;-64
2024/03/16 04:22:41;;;;;;;3.80;1.30;;;10.70;99.90;10.70;100089.00;;;;4880906;28;88580;-63
2024/03/16 04:25:09;;;;;;;2.40;1.40;;;10.80;99.90;10.70;100087.00;;;;4881278;28;87852;-63
2024/03/16 04:27:35;;;;;;;1.83;1.33;;;10.80;99.90;10.80;100086.00;;;;4881153;28;87979;-64
2024/03/16 04:30:02;;;;;;;1.37;1.10;;;10.80;99.90;10.80;100087.00;;;;4877620;28;89458;-63
2024/03/16 04:32:28;;;;;;;2.17;1.57;;;10.90;99.90;10.80;100089.00;;;;4882079;28;89264;-62
2024/03/16 04:34:54;;;;;;;1.57;1.20;;;10.90;99.90;10.90;100089.00;;;;4880637;28;92998;-63
2024/03/16 04:37:20;;;;;;;1.63;0.90;;;10.90;99.90;10.90;100086.00;;;;4876375;28;88005;-63
2024/03/16 04:39:47;;;;;;;2.10;1.43;;;10.90;99.90;10.90;100077.00;;;;4878143;28;111620;-62
2024/03/16 04:42:14;;;;;;;3.03;1.37;;;10.90;99.90;11.00;100085.00;;;;4877318;28;88141;-62
2024/03/16 04:44:40;;;;;;;1.73;1.37;;;11.00;99.90;11.00;100077.00;;;;4878380;28;87883;-63
2024/03/16 04:47:05;;;;;;;0.90;0.90;;;11.10;99.90;11.00;100088.00;;;;4880628;28;87165;-64
2024/03/16 04:49:31;;;;;;;1.37;1.17;;;11.10;99.90;11.00;100090.00;;;;4876597;28;113622;-62
2024/03/16 04:51:57;;;;;;;1.87;1.57;;;11.10;99.90;11.00;100095.00;;;;4880513;28;87841;-64
2024/03/16 04:54:23;;;;;;;4.70;1.10;;;11.10;99.90;11.00;100101.00;;;;4876043;28;103538;-62
2024/03/16 04:56:49;;;;;;;2.10;1.00;;;11.10;99.90;11.00;100102.00;;;;4879247;28;101622;-66
2024/03/16 04:59:15;;;;;;;1.23;1.13;;;11.00;99.90;10.90;100100.00;;;;4875932;28;102149;-62
2024/03/16 05:01:41;;;;;;;2.83;1.30;;;11.00;99.90;10.90;100108.00;;;;4876904;28;107750;-61
2024/03/16 05:04:07;;;;;;;0.93;0.93;;;11.00;99.90;10.90;100107.00;;;;4876777;28;110166;-62
2024/03/16 05:06:34;;;;;;;1.37;1.20;;;10.90;99.90;10.90;100110.00;;;;4878266;28;88399;-62
2024/03/16 05:09:06;;;;;;;2.03;1.10;;;10.90;99.90;10.80;100110.00;;;;4880938;28;89200;-64
2024/03/16 05:11:32;;;;;;;1.07;0.87;;;10.90;99.90;10.80;100110.00;;;;4881281;28;87015;-63
2024/03/16 05:14:02;;;;;;;1.77;0.97;;;11.00;99.90;10.80;100111.00;;;;4881230;28;87967;-63
2024/03/16 05:16:28;;;;;;;1.83;1.13;;;10.90;99.90;10.90;100108.00;;;;4881355;28;87896;-62
2024/03/16 05:18:53;;;;;;;1.27;1.17;;;10.90;99.90;10.90;100109.00;;;;4878976;28;112528;-62
2024/03/16 05:21:19;;;;;;;1.33;1.23;;;10.90;99.90;10.90;100101.00;;;;4878911;28;101535;-62
2024/03/16 05:23:45;;;;;;;1.30;0.63;;;10.90;99.90;10.90;100117.00;;;;4879127;28;108763;-62
2024/03/16 05:26:12;;;;;;;2.37;1.20;;;11.00;99.90;10.90;100113.00;;;;4882196;28;87936;-62
2024/03/16 05:28:40;;;;;;;2.47;1.33;;;11.00;99.90;11.00;100117.00;;;;4877185;28;109610;-63
2024/03/16 05:31:08;;;;;;;1.70;1.27;;;11.00;99.90;11.00;100111.00;;;;4877593;28;88464;-62
2024/03/16 05:33:34;;;;;;;0.70;0.70;;;11.00;99.90;11.00;100109.00;;;;4880084;28;87901;-62
2024/03/16 05:36:02;;;;;;;1.97;1.30;;;11.10;99.90;11.10;100122.00;;;;4880551;28;96852;-62
2024/03/16 05:38:28;;;;;;;2.20;1.27;;;11.10;99.90;11.10;100130.00;;;;4880443;28;87925;-62
2024/03/16 05:40:55;;;;;;;2.10;1.13;;;11.10;99.90;11.10;100125.00;;;;4879340;28;88103;-62
2024/03/16 05:43:21;;;;;;;0.67;0.67;;;11.10;99.90;11.10;100135.00;;;;4881673;28;88859;-61
2024/03/16 05:45:50;;;;;;;1.33;1.00;;;11.20;99.90;11.10;100134.00;;;;4876119;28;108001;-62
2024/03/16 05:48:19;;;;;;;1.17;1.07;;;11.20;99.90;11.20;100138.00;;;;4881319;28;88046;-64
2024/03/16 05:50:45;;;;;;;1.30;1.03;;;11.20;99.90;11.20;100137.00;;;;4877456;28;97535;-62
2024/03/16 05:53:14;;;;;;;0.70;0.70;;;11.20;99.90;11.20;100131.00;;;;4880493;28;109658;-64
2024/03/16 05:55:39;;;;;;;1.67;1.20;;;11.20;99.90;11.20;100135.00;;;;4876141;28;87811;-64
2024/03/16 05:58:05;;;;;;;1.53;1.10;;;11.30;99.90;11.20;100141.00;;;;4875891;28;88819;-63
2024/03/16 06:00:32;;;;;;;1.33;1.07;;;11.20;99.90;11.20;100147.00;;;;4880462;28;115794;-64
2024/03/16 06:02:59;;;;;;;3.17;1.40;;;11.20;99.90;11.20;100147.00;;;;4880688;28;87799;-64
2024/03/16 06:05:25;;;;;;;2.07;1.00;;;11.20;99.90;11.10;100153.00;;;;4882324;28;88154;-64
2024/03/16 06:07:51;;;;;;;0.73;0.70;;;11.20;99.90;11.10;100149.00;;;;4877645;28;88837;-63
2024/03/16 06:10:17;;;;;;;1.13;1.03;;;11.20;99.90;11.20;100152.00;;;;4876041;28;99074;-63
2024/03/16 06:12:42;;;;;;;1.87;1.30;;;10.80;99.90;11.20;100147.00;;;;4866993;28;110450;-64
2024/03/16 06:15:08;;;;;;;2.00;1.00;;;11.20;99.90;11.20;100157.00;;;;4873936;28;107851;-64
2024/03/16 06:17:34;;;;;;;3.57;1.30;;;11.20;99.90;11.30;100153.00;;;;4872732;28;88535;-64
2024/03/16 06:20:00;;;;;;;2.33;1.33;;;11.40;99.90;11.40;100159.00;;;;4872560;28;89126;-64
2024/03/16 06:22:26;;;;;;;3.33;1.33;;;11.50;99.90;11.60;100168.00;;;;4873775;28;99186;-64
2024/03/16 06:24:52;;;;;;;0.97;0.80;;;11.60;99.90;11.80;100173.00;;;;4874931;28;87349;-65
2024/03/16 06:27:21;;;;;;;1.80;1.07;;;12.10;99.90;12.00;100170.00;;;;4874803;28;116082;-63
2024/03/16 06:29:52;;;;;;;1.47;1.20;;;11.90;99.90;12.20;100172.00;;;;4873757;28;88395;-64
2024/03/16 06:32:21;;;;;;;3.37;1.47;;;12.20;99.90;12.40;100185.00;;;;4873644;28;90295;-64
2024/03/16 06:34:50;;;;;;;2.23;1.10;;;12.30;99.90;12.60;100192.00;;;;4877621;28;89162;-63
2024/03/16 06:37:19;;;;;;;1.63;1.13;;;12.50;99.90;12.70;100173.00;;;;4873336;28;88704;-64
2024/03/16 06:39:46;;;;;;;1.03;1.03;;;12.70;99.90;12.90;100184.00;;;;4873895;28;87927;-64
2024/03/16 06:42:11;;;;;;;2.03;1.53;;;12.90;99.90;13.10;100194.00;;;;4874854;28;88044;-64
2024/03/16 06:44:38;;;;;;;1.43;1.17;;;13.10;99.90;13.10;100187.00;;;;4864437;28;100916;-64
2024/03/16 06:47:08;;;;;;;1.50;1.20;;;13.10;99.90;13.30;100190.00;;;;4889827;28;88866;-64
2024/03/16 06:49:33;;;;;;;4.20;1.07;;;13.30;99.90;13.40;100197.00;;;;4878699;28;87240;-62
2024/03/16 06:51:59;;;;;;;1.67;1.13;;;13.40;99.90;13.50;100210.00;;;;4873894;28;99119;-63
2024/03/16 06:54:25;;;;;;;2.10;1.10;;;13.50;99.90;13.70;100202.00;;;;4873137;28;109206;-64
2024/03/16 06:56:50;;;;;;;2.80;1.10;;;13.60;99.90;13.80;100209.00;;;;4871984;28;117986;-64
2024/03/16 06:59:16;;;;;;;2.73;1.10;;;13.80;99.90;13.90;100210.00;;;;4872296;28;87914;-64
2024/03/16 07:01:42;;;;;;;1.47;1.10;;;13.90;99.90;13.90;100216.00;;;;4872060;28;109753;-63
2024/03/16 07:04:09;;;;;;;0.93;0.90;;;13.90;99.90;13.90;100219.00;;;;4872741;28;87878;-65
2024/03/16 07:06:34;;;;;;;1.95;1.02;;;13.90;99.90;13.90;100227.00;;;;4873027;28;118411;-64
2024/03/16 07:09:06;;;;;;;1.92;0.80;;;14.00;99.90;13.90;100225.00;;;;4871836;28;117357;-63
2024/03/16 07:11:32;;;;;;;1.33;1.10;;;13.90;99.90;13.90;100231.00;;;;4869809;28;87945;-64
2024/03/16 07:13:57;;;;;;;2.35;1.10;;;13.90;99.90;13.80;100220.00;;;;4873299;28;109578;-64
2024/03/16 07:16:23;;;;;;;1.67;1.23;;;13.90;99.90;13.80;100234.00;;;;4875140;28;88018;-64
2024/03/16 07:18:49;;;;;;;2.50;1.08;;;13.90;99.90;13.80;100230.00;;;;4874711;28;88400;-63
2024/03/16 07:21:15;;;;;;;1.20;0.98;;;13.90;99.90;13.90;100220.00;;;;4875202;28;88726;-63
2024/03/16 07:23:42;;;;;;;1.73;1.13;;;14.00;99.90;13.80;100235.00;;;;4874792;28;87861;-63
2024/03/16 07:26:07;;;;;;;0.80;0.80;;;13.90;99.90;13.80;100243.00;;;;4878455;28;88276;-64
2024/03/16 07:28:33;;;;;;;1.98;0.98;;;13.90;99.90;13.80;100232.00;;;;4871372;28;117331;-63
2024/03/16 07:30:59;;;;;;;0.90;0.90;;;13.80;99.90;13.80;100243.00;;;;4871333;28;87870;-64
2024/03/16 07:33:25;;;;;;;1.03;0.77;;;13.90;99.90;13.80;100243.00;;;;4870228;28;87969;-63
2024/03/16 07:35:51;;;;;;;2.78;1.30;;;13.90;99.90;13.80;100238.00;;;;4868104;28;116591;-63
2024/03/16 07:38:17;;;;;;;1.33;1.08;;;13.80;99.90;13.70;100244.00;;;;4876246;28;101803;-65
2024/03/16 07:40:43;;;;;;;2.85;1.17;;;13.80;99.90;13.70;100243.00;;;;4873139;28;99945;-63
2024/03/16 07:43:09;;;;;;;0.60;0.60;;;13.70;99.90;13.70;100250.00;;;;4881377;28;96986;-63
2024/03/16 07:45:39;;;;;;;1.27;0.90;;;13.70;99.90;13.70;100249.00;;;;4874699;28;98133;-64
2024/03/16 07:48:06;;;;;;;1.73;0.82;;;13.70;99.90;13.60;100247.00;;;;4877182;28;88433;-62
2024/03/16 07:50:32;;;;;;;0.70;0.70;;;13.70;99.90;13.60;100245.00;;;;4877112;28;88075;-64
2024/03/16 07:52:58;;;;;;;1.00;0.90;;;13.10;99.90;13.60;100259.00;;;;4876245;28;87862;-62
2024/03/16 07:55:24;;;;;;;1.43;0.93;;;13.60;99.90;13.70;100262.00;;;;4875409;28;116684;-63
2024/03/16 07:57:50;;;;;;;1.40;0.87;;;13.70;99.90;13.70;100253.00;;;;4882637;28;88559;-62
2024/03/16 08:00:16;;;;;;;0.80;0.73;;;13.70;99.90;13.70;100248.00;;;;4875766;28;89561;-62
2024/03/16 08:02:41;;;;;;;2.70;1.17;;;13.70;99.90;13.70;100254.00;;;;4878919;28;87191;-62
2024/03/16 08:05:11;;;;;;;2.43;1.17;;;13.70;99.90;13.70;100254.00;;;;4878241;28;88609;-63
2024/03/16 08:07:38;;;;;;;1.67;1.10;;;13.70;99.90;13.70;100259.00;;;;4873772;28;88532;-62
2024/03/16 08:10:04;;;;;;;0.70;0.57;;;13.70;99.90;13.70;100273.00;;;;4875288;28;89264;-62
2024/03/16 08:12:30;;;;;;;1.13;0.90;;;13.70;99.90;13.80;100261.00;;;;4875091;28;87940;-64
2024/03/16 08:14:56;;;;;;;3.27;0.90;;;13.80;99.90;13.80;100261.00;;;;4878716;28;87710;-64
2024/03/16 08:17:22;;;;;;;0.73;0.73;;;13.80;99.90;13.90;100270.00;;;;4873938;28;87952;-63
2024/03/16 08:19:48;;;;;;;0.68;0.68;;;13.90;99.90;14.00;100271.00;;;;4878146;28;89746;-63
2024/03/16 08:22:13;;;;;;;1.10;1.00;;;13.90;99.90;14.10;100276.00;;;;4875755;28;108383;-62
2024/03/16 08:24:39;;;;;;;0.70;0.70;;;14.00;99.90;14.10;100264.00;;;;4875083;28;116734;-63
2024/03/16 08:27:05;;;;;;;1.63;1.08;;;14.10;99.90;14.10;100272.00;;;;4877753;28;110704;-63
2024/03/16 08:29:31;;;;;;;1.95;1.23;;;14.10;99.90;14.00;100258.00;;;;4877648;28;109069;-64
2024/03/16 08:31:58;;;;;;;2.90;1.10;;;14.00;99.90;13.90;100278.00;;;;4874984;28;87873;-64
2024/03/16 08:34:25;;;;;;;0.93;0.80;;;13.90;99.90;13.70;100276.00;;;;4875587;28;89615;-64
2024/03/16 08:36:50;;;;;;;1.80;0.70;;;13.80;99.90;13.60;100284.00;;;;4877894;28;88141;-64
2024/03/16 08:39:16;;;;;;;5.00;3.05;;;13.60;99.90;13.50;100279.00;;;;4877208;28;87849;-63
2024/03/16 08:41:42;;;;;;;4.33;1.63;;;13.50;99.90;13.50;100278.00;;;;4879081;28;87830;-64
2024/03/16 08:44:08;;;;;;;1.98;1.33;;;13.50;99.90;13.50;100288.00;;;;4871115;28;89432;-64
2024/03/16 08:46:34;;;;;;;2.30;0.82;;;13.50;99.90;13.50;100282.00;;;;4876653;28;115634;-64
2024/03/16 08:49:03;;;;;;;2.35;1.10;;;13.60;99.90;13.60;100275.00;;;;4878939;28;87564;-62
2024/03/16 08:51:31;;;;;;;1.13;0.93;;;13.60;99.90;13.70;100278.00;;;;4874081;28;108114;-64
2024/03/16 08:53:57;;;;;;;3.43;1.47;;;13.60;99.90;13.70;100269.00;;;;4874649;28;117451;-62
2024/03/16 08:56:26;;;;;;;1.27;1.17;;;13.60;99.90;13.70;100274.00;;;;4874475;28;88402;-63
2024/03/16 08:58:51;;;;;;;2.40;1.23;;;13.70;99.90;13.80;100272.00;;;;4875746;28;88850;-63
2024/03/16 09:01:17;;;;;;;1.98;0.93;;;13.70;99.90;13.90;100266.00;;;;4873409;28;108474;-63
2024/03/16 09:03:43;;;;;;;2.60;1.35;;;13.80;99.90;14.00;100264.00;;;;4873998;28;117559;-64
2024/03/16 09:06:09;;;;;;;1.55;1.10;;;13.90;99.90;14.10;100257.00;;;;4875450;28;117293;-63
2024/03/16 09:08:36;;;;;;;2.30;1.50;;;14.00;99.90;14.20;100264.00;;;;4874781;28;110840;-63
2024/03/16 09:11:03;;;;;;;1.80;1.65;;;14.10;99.90;14.30;100264.00;;;;4877165;28;87783;-63
2024/03/16 09:13:29;;;;;;;1.52;0.80;;;14.20;99.90;14.70;100273.00;;;;4872442;28;94332;-62
2024/03/16 09:15:56;;;;;;;1.83;0.77;;;14.50;99.90;15.00;100260.00;;;;4882379;28;88164;-64
2024/03/16 09:18:22;;;;;;;0.70;0.70;;;14.80;99.90;15.20;100253.00;;;;4874208;28;89054;-63
2024/03/16 09:20:47;;;;;;;3.75;1.75;;;15.10;99.90;15.50;100270.00;;;;4876955;28;106066;-63
2024/03/16 09:23:13;;;;;;;1.13;0.70;;;15.40;99.90;15.80;100249.00;;;;4878491;28;119463;-63
2024/03/16 09:25:40;;;;;;;2.60;1.20;;;15.70;99.90;16.00;100259.00;;;;4875812;28;89563;-64
2024/03/16 09:28:07;;;;;;;2.65;1.00;;;15.90;99.90;16.30;100266.00;;;;4875938;28;87750;-64
2024/03/16 09:30:33;;;;;;;0.85;0.50;;;16.20;99.90;16.60;100266.00;;;;4877267;28;87974;-64
2024/03/16 09:32:59;;;;;;;1.13;0.63;;;16.50;99.90;16.80;100264.00;;;;4875968;28;104630;-64
2024/03/16 09:35:26;;;;;;;0.98;0.45;;;16.70;99.90;16.90;100264.00;;;;4877427;28;88150;-64
2024/03/16 09:37:52;;;;;;;0.80;0.77;;;16.80;99.90;16.90;100265.00;;;;4874057;28;87783;-64
2024/03/16 09:40:18;;;;;;;1.35;0.68;;;16.90;99.90;16.90;100277.00;;;;4876797;28;108423;-64
2024/03/16 09:42:43;;;;;;;2.13;0.55;;;16.90;99.90;16.70;100279.00;;;;4876107;28;88772;-65
2024/03/16 09:45:18;;;;;;;0.63;0.52;;;16.80;98.10;16.30;100281.00;;;;4876103;28;117233;-64
2024/03/16 09:47:47;;;;;;;2.47;0.75;;;16.50;98.30;16.10;100271.00;;;;4873237;28;89257;-64
2024/03/16 09:50:14;;;;;;;1.40;0.70;;;16.20;99.00;16.10;100280.00;;;;4872343;28;108591;-63
2024/03/16 09:52:43;;;;;;;1.15;0.57;;;16.10;99.40;16.30;100285.00;;;;4862981;28;118036;-64
2024/03/16 09:55:09;;;;;;;0.50;0.30;;;16.20;99.90;16.70;100282.00;;;;4862416;28;88252;-64
2024/03/16 09:57:40;;;;;;;0.70;0.70;;;16.50;99.70;16.90;100284.00;;;;4899552;28;88053;-63
2024/03/16 10:00:09;;;;;;;1.42;0.75;;;16.80;99.30;17.30;100276.00;;;;4894224;28;87996;-64
2024/03/16 10:02:39;;;;;;;2.00;0.90;;;17.10;99.20;17.60;100285.00;;;;4899291;28;88958;-63
2024/03/16 10:05:11;;;;;;;1.60;0.50;;;17.40;98.30;17.70;100285.00;;;;4894033;28;87451;-64
2024/03/16 10:07:38;;;;;;;1.85;0.65;;;17.60;97.10;17.60;100279.00;;;;4891076;28;87795;-64
2024/03/16 10:10:05;;;;;;;0.60;0.57;;;17.60;97.10;17.50;100277.00;;;;4894820;28;88015;-65
2024/03/16 10:12:30;;;;;;;0.55;0.40;;;17.50;96.80;17.40;100280.00;;;;4897189;28;89793;-64
2024/03/16 10:15:09;;;;;;;0.63;0.63;;;17.30;96.60;17.20;100277.00;;;;4893911;28;118208;-63
2024/03/16 10:17:36;;;;;;;2.15;1.10;;;17.20;96.80;17.10;100273.00;;;;4895299;28;90422;-64
2024/03/16 10:20:07;;;;;;;1.48;0.50;;;17.20;96.80;16.90;100291.00;;;;4893728;28;87800;-64
2024/03/16 10:22:34;;;;;;;0.63;0.60;;;17.00;96.50;16.70;100275.00;;;;4905967;28;88167;-64
2024/03/16 10:25:00;;;;;;;0.68;0.40;;;16.80;96.50;16.50;100273.00;;;;4890491;28;89419;-64
2024/03/16 10:27:25;;;;;;;0.65;0.55;;;16.60;96.90;16.30;100286.00;;;;4891267;28;109921;-64
2024/03/16 10:29:51;;;;;;;0.82;0.70;;;16.40;97.40;16.20;100284.00;;;;4891801;28;107905;-64
2024/03/16 10:32:18;;;;;;;1.10;0.60;;;16.30;97.40;16.00;100286.00;;;;4893024;28;117759;-64
2024/03/16 10:34:45;;;;;;;1.20;0.50;;;16.10;97.60;15.90;100294.00;;;;4894813;28;88999;-64
2024/03/16 10:37:11;;;;;;;0.95;0.73;;;15.90;98.10;15.80;100289.00;;;;4891817;28;88847;-64
2024/03/16 10:39:39;;;;;;;2.30;0.73;;;15.80;98.50;15.70;100284.00;;;;4891251;28;108509;-65
2024/03/16 10:42:11;;;;;;;1.48;0.63;;;15.70;98.60;15.60;100289.00;;;;4894001;28;89141;-65
2024/03/16 10:44:39;;;;;;;0.50;0.50;;;15.60;98.70;15.40;100292.00;;;;4896396;28;87964;-63
2024/03/16 10:47:06;;;;;;;1.25;0.70;;;15.50;98.90;15.30;100290.00;;;;4895388;28;110566;-63